Time;durP1;ratioP1;P1;durP2;ratioP2;P2;SDS_P1;SDS_P2;PMS_P1;PMS_P2;Temp;Humidity;BMP_temperature;BMP_pressure;BME280_temperature;BME280_humidity;BME280_pressure;Samples;Min_cycle;Max_cycle;Signal;HPM_P1;HPM_P2
2021/10/29 00:01:03;;;;;;;13.57;9.10;;;9.10;99.90;;;;;;6243233;23;20020;-88
2021/10/29 00:03:29;;;;;;;12.90;9.18;;;9.10;99.90;;;;;;6220327;23;20015;-89
2021/10/29 00:06:01;;;;;;;13.35;9.07;;;9.10;99.90;;;;;;6194011;23;20001;-89
2021/10/29 00:08:27;;;;;;;12.15;8.73;;;9.00;99.90;;;;;;6215788;23;20443;-88
2021/10/29 00:10:56;;;;;;;11.50;8.52;;;9.10;99.90;;;;;;6220477;23;20413;-88
2021/10/29 00:13:21;;;;;;;13.00;8.10;;;9.00;99.90;;;;;;6195780;23;20004;-88
2021/10/29 00:15:48;;;;;;;13.23;8.90;;;9.00;99.90;;;;;;6220427;23;20015;-87
2021/10/29 00:18:13;;;;;;;11.70;8.60;;;9.10;99.90;;;;;;6194339;23;20014;-86
2021/10/29 00:20:40;;;;;;;13.50;9.40;;;9.10;99.90;;;;;;6220852;23;20020;-87
2021/10/29 00:23:09;;;;;;;12.00;8.05;;;9.20;99.90;;;;;;6220653;23;20015;-87
2021/10/29 00:25:39;;;;;;;13.40;8.07;;;9.20;99.90;;;;;;6195742;23;20004;-86
2021/10/29 00:28:07;;;;;;;10.93;7.68;;;9.10;99.90;;;;;;6196253;23;20081;-86
2021/10/29 00:30:47;;;;;;;13.30;9.07;;;9.10;99.90;;;;;;6195835;23;20024;-86
2021/10/29 00:33:15;;;;;;;11.90;7.35;;;9.10;99.90;;;;;;6219753;23;20035;-87
2021/10/29 00:35:42;;;;;;;9.88;6.82;;;9.10;99.90;;;;;;6221432;23;20046;-87
2021/10/29 00:38:11;;;;;;;12.43;7.93;;;9.10;99.90;;;;;;6247236;23;19992;-86
2021/10/29 00:40:39;;;;;;;10.32;7.28;;;9.10;99.90;;;;;;6220784;23;20074;-87
2021/10/29 00:43:13;;;;;;;10.82;7.30;;;9.10;99.90;;;;;;6221244;23;20454;-87
2021/10/29 00:45:39;;;;;;;;;;;9.00;99.90;;;;;;6196143;23;20106;-87
2021/10/29 00:48:06;;;;;;;9.57;6.32;;;8.90;99.90;;;;;;6220832;23;19899;-87
2021/10/29 00:50:35;;;;;;;10.02;6.75;;;8.90;99.90;;;;;;6195780;23;20018;-87
2021/10/29 00:53:01;;;;;;;11.23;6.72;;;8.80;99.90;;;;;;6247539;22;20012;-87
2021/10/29 00:55:28;;;;;;;12.02;7.25;;;8.80;99.90;;;;;;6247122;23;20066;-87
2021/10/29 00:57:55;;;;;;;10.15;6.47;;;8.80;99.90;;;;;;6220625;23;19996;-88
2021/10/29 01:00:23;;;;;;;10.85;7.20;;;8.80;99.90;;;;;;6220740;23;20081;-86
2021/10/29 01:02:49;;;;;;;9.35;6.80;;;8.80;99.90;;;;;;6195443;23;20012;-87
2021/10/29 01:05:14;;;;;;;9.57;6.65;;;8.80;99.90;;;;;;6247097;23;20086;-87
2021/10/29 01:07:40;;;;;;;8.68;6.45;;;8.80;99.90;;;;;;6220307;23;20308;-87
2021/10/29 01:10:06;;;;;;;9.55;7.13;;;8.80;99.90;;;;;;6220207;23;20385;-86
2021/10/29 01:12:32;;;;;;;9.43;7.10;;;8.90;99.90;;;;;;6220404;23;20007;-87
2021/10/29 01:15:00;;;;;;;11.45;7.68;;;8.90;99.90;;;;;;6220257;23;20000;-89
2021/10/29 01:17:26;;;;;;;10.18;7.25;;;9.00;99.90;;;;;;6220593;23;20007;-87
2021/10/29 01:19:56;;;;;;;9.95;6.88;;;9.10;99.90;;;;;;6220073;23;20000;-86
2021/10/29 01:22:23;;;;;;;12.13;8.88;;;9.20;99.90;;;;;;6220191;23;20008;-86
2021/10/29 01:24:50;;;;;;;11.23;8.10;;;9.20;99.90;;;;;;6220173;23;20080;-87
2021/10/29 01:27:17;;;;;;;11.07;7.90;;;9.30;99.90;;;;;;6220316;23;19996;-87
2021/10/29 01:29:46;;;;;;;13.70;8.38;;;9.30;99.90;;;;;;6246652;23;19996;-88
2021/10/29 01:32:12;;;;;;;13.13;8.85;;;9.40;99.90;;;;;;6220073;23;19997;-87
2021/10/29 01:34:41;;;;;;;13.15;9.85;;;9.40;99.90;;;;;;6219750;23;20003;-87
2021/10/29 01:37:12;;;;;;;12.23;8.68;;;9.50;99.90;;;;;;6220190;23;20308;-87
2021/10/29 01:39:39;;;;;;;12.23;8.32;;;9.50;99.90;;;;;;6220154;23;20003;-87
2021/10/29 01:42:06;;;;;;;11.98;8.23;;;9.50;99.90;;;;;;6219248;23;20050;-87
2021/10/29 01:44:32;;;;;;;12.70;8.13;;;9.50;99.90;;;;;;6220521;23;20409;-86
2021/10/29 01:46:58;;;;;;;9.55;7.03;;;9.40;99.90;;;;;;6219960;23;20011;-87
2021/10/29 01:49:23;;;;;;;9.27;7.28;;;9.40;99.90;;;;;;6220306;23;20470;-87
2021/10/29 01:51:49;;;;;;;10.30;6.80;;;9.40;99.90;;;;;;6218929;23;20016;-87
2021/10/29 01:54:15;;;;;;;9.38;7.00;;;9.30;99.90;;;;;;6246968;23;20063;-87
2021/10/29 01:56:41;;;;;;;10.25;7.15;;;9.20;99.90;;;;;;6219495;23;19997;-88
2021/10/29 01:59:07;;;;;;;10.50;7.32;;;9.20;99.90;;;;;;6220521;23;20000;-87
2021/10/29 02:01:32;;;;;;;10.27;6.85;;;9.20;99.90;;;;;;6219682;23;20010;-88
2021/10/29 02:03:58;;;;;;;9.27;6.55;;;9.20;99.90;;;;;;6220119;23;20071;-88
2021/10/29 02:06:24;;;;;;;9.85;7.30;;;9.20;99.90;;;;;;6219902;23;20316;-88
2021/10/29 02:08:50;;;;;;;10.52;6.82;;;9.20;99.90;;;;;;6219091;23;19996;-88
2021/10/29 02:11:16;;;;;;;10.55;6.90;;;9.20;99.90;;;;;;6220170;23;20000;-88
2021/10/29 02:13:43;;;;;;;9.82;6.55;;;9.20;99.90;;;;;;6220323;23;20397;-87
2021/10/29 02:16:09;;;;;;;8.73;6.47;;;9.20;99.90;;;;;;6246469;23;20000;-87
2021/10/29 02:18:35;;;;;;;9.07;6.18;;;9.20;99.90;;;;;;6219952;23;20050;-87
2021/10/29 02:21:01;;;;;;;8.93;6.28;;;9.20;99.90;;;;;;6220609;23;20087;-88
2021/10/29 02:23:27;;;;;;;9.15;6.72;;;9.20;99.90;;;;;;6221655;23;20364;-87
2021/10/29 02:25:53;;;;;;;12.98;8.27;;;9.20;99.90;;;;;;6221660;23;20091;-88
2021/10/29 02:28:20;;;;;;;11.90;7.57;;;9.20;99.90;;;;;;6248537;23;20023;-87
2021/10/29 02:30:47;;;;;;;11.68;7.50;;;9.30;99.90;;;;;;6221358;23;20022;-88
2021/10/29 02:33:16;;;;;;;8.10;6.07;;;9.30;99.90;;;;;;6221951;23;20027;-87
2021/10/29 02:35:43;;;;;;;9.88;7.15;;;9.40;99.90;;;;;;6221648;23;20008;-88
2021/10/29 02:38:18;;;;;;;8.77;6.32;;;9.30;99.90;;;;;;6247188;23;20000;-87
2021/10/29 02:40:44;;;;;;;9.02;6.13;;;9.40;99.90;;;;;;6221177;23;20007;-87
2021/10/29 02:43:10;;;;;;;8.15;6.13;;;9.30;99.90;;;;;;6221720;23;20004;-86
2021/10/29 02:45:36;;;;;;;9.07;5.97;;;9.30;99.90;;;;;;6219828;23;20019;-86
2021/10/29 02:48:03;;;;;;;9.77;6.30;;;9.30;99.90;;;;;;6246370;23;19996;-87
2021/10/29 02:50:29;;;;;;;10.95;7.10;;;9.20;99.90;;;;;;6220319;23;19996;-86
2021/10/29 02:52:54;;;;;;;10.63;7.07;;;9.30;99.90;;;;;;6219297;23;20428;-87
2021/10/29 02:55:20;;;;;;;10.50;6.85;;;9.40;99.90;;;;;;6219613;23;19992;-87
2021/10/29 02:57:46;;;;;;;9.63;6.63;;;9.40;99.90;;;;;;6219697;23;19996;-88
2021/10/29 03:00:15;;;;;;;9.52;6.70;;;9.40;99.90;;;;;;6221095;23;20026;-87
2021/10/29 03:02:42;;;;;;;9.38;6.95;;;9.40;99.90;;;;;;6220999;23;20000;-87
2021/10/29 03:05:08;;;;;;;10.13;6.30;;;9.30;99.90;;;;;;6221693;23;19996;-87
2021/10/29 03:07:34;;;;;;;10.50;7.13;;;9.40;99.90;;;;;;6221364;23;19996;-87
2021/10/29 03:10:00;;;;;;;8.82;6.68;;;9.40;99.90;;;;;;6220726;23;19992;-87
2021/10/29 03:12:26;;;;;;;8.45;6.35;;;9.40;99.90;;;;;;6221564;23;20000;-87
2021/10/29 03:14:51;;;;;;;13.88;9.23;;;9.40;99.90;;;;;;6221247;23;20024;-87
2021/10/29 03:17:17;;;;;;;14.15;9.93;;;9.50;99.90;;;;;;6221491;23;20005;-87
2021/10/29 03:19:43;;;;;;;12.15;8.57;;;9.60;99.90;;;;;;6221722;23;20019;-87
2021/10/29 03:22:10;;;;;;;11.70;8.30;;;9.60;99.90;;;;;;6221537;23;20058;-87
2021/10/29 03:24:35;;;;;;;10.88;7.43;;;9.60;99.90;;;;;;6221636;23;20000;-87
2021/10/29 03:27:01;;;;;;;10.18;7.45;;;9.60;99.90;;;;;;6221288;23;20042;-87
2021/10/29 03:29:27;;;;;;;11.07;7.45;;;9.60;99.90;;;;;;6221500;23;20057;-87
2021/10/29 03:31:52;;;;;;;11.23;7.82;;;9.60;99.90;;;;;;6220766;23;20004;-87
2021/10/29 03:34:18;;;;;;;10.68;7.72;;;9.60;99.90;;;;;;6221345;23;19999;-87
2021/10/29 03:36:44;;;;;;;11.13;8.70;;;9.50;99.90;;;;;;6221459;23;20000;-87
2021/10/29 03:39:23;;;;;;;11.63;8.13;;;9.50;99.90;;;;;;6221035;23;20045;-88
2021/10/29 03:42:01;;;;;;;11.77;8.40;;;9.50;99.90;;;;;;6245268;23;20011;-87
2021/10/29 03:44:44;;;;;;;13.27;8.95;;;9.50;99.90;;;;;;6221481;23;20081;-87
2021/10/29 03:47:12;;;;;;;10.40;8.03;;;9.50;99.90;;;;;;6221271;23;20008;-87
2021/10/29 03:49:48;;;;;;;14.35;9.60;;;9.50;99.90;;;;;;6221217;23;20231;-87
2021/10/29 03:52:31;;;;;;;15.20;10.63;;;9.50;99.90;;;;;;6220959;23;20044;-87
2021/10/29 03:55:05;;;;;;;14.98;11.15;;;9.50;99.90;;;;;;6221262;23;19992;-87
2021/10/29 03:57:31;;;;;;;14.75;10.48;;;9.60;99.90;;;;;;6221517;23;20000;-86
2021/10/29 03:59:59;;;;;;;14.25;10.35;;;9.60;99.90;;;;;;6247762;23;19996;-87
2021/10/29 04:02:25;;;;;;;15.63;11.10;;;9.60;99.90;;;;;;6221013;23;20004;-87
2021/10/29 04:04:51;;;;;;;16.02;12.55;;;9.60;99.90;;;;;;6220963;23;20047;-87
2021/10/29 04:07:18;;;;;;;16.60;11.07;;;9.60;99.90;;;;;;6195967;23;20285;-87
2021/10/29 04:09:44;;;;;;;16.17;11.65;;;9.70;99.90;;;;;;6220887;23;19992;-87
2021/10/29 04:12:11;;;;;;;14.77;10.73;;;9.70;99.90;;;;;;6220748;23;19996;-87
2021/10/29 04:14:37;;;;;;;15.57;11.07;;;9.80;99.90;;;;;;6222514;23;20062;-87
2021/10/29 04:17:04;;;;;;;16.48;11.23;;;9.80;99.90;;;;;;6220720;23;20030;-86
2021/10/29 04:19:30;;;;;;;14.55;11.52;;;9.80;99.90;;;;;;6195957;23;20130;-87
2021/10/29 04:21:59;;;;;;;17.33;11.38;;;9.90;99.90;;;;;;6195355;23;20139;-87
2021/10/29 04:24:26;;;;;;;20.25;11.73;;;9.90;99.90;;;;;;6220912;23;19996;-87
2021/10/29 04:26:53;;;;;;;16.40;11.23;;;9.90;99.90;;;;;;6221399;23;20035;-86
2021/10/29 04:29:24;;;;;;;14.43;11.00;;;9.90;99.90;;;;;;6221574;23;20003;-89
2021/10/29 04:31:50;;;;;;;16.30;10.98;;;9.90;99.90;;;;;;6220618;23;20007;-87
2021/10/29 04:34:18;;;;;;;14.40;10.23;;;9.80;99.90;;;;;;6220911;23;19992;-87
2021/10/29 04:36:44;;;;;;;13.85;9.68;;;9.80;99.90;;;;;;6220812;23;20313;-86
2021/10/29 04:39:13;;;;;;;18.58;10.65;;;9.80;99.90;;;;;;6220544;23;19996;-88
2021/10/29 04:41:45;;;;;;;15.48;11.35;;;9.80;99.90;;;;;;6196508;23;20010;-87
2021/10/29 04:44:11;;;;;;;13.85;10.52;;;9.80;99.90;;;;;;6220535;23;20022;-87
2021/10/29 04:46:37;;;;;;;14.40;10.65;;;9.80;99.90;;;;;;6247601;23;20016;-88
2021/10/29 04:49:04;;;;;;;16.88;11.55;;;9.90;99.90;;;;;;6220682;23;20004;-87
2021/10/29 04:51:30;;;;;;;14.35;10.65;;;9.90;99.90;;;;;;6220168;23;20008;-87
2021/10/29 04:53:56;;;;;;;14.65;11.65;;;9.80;99.90;;;;;;6220712;23;20308;-87
2021/10/29 04:56:22;;;;;;;17.02;12.43;;;9.90;99.90;;;;;;6220510;23;20014;-87
2021/10/29 04:58:48;;;;;;;14.15;10.95;;;9.90;99.90;;;;;;6220331;23;20044;-87
2021/10/29 05:01:17;;;;;;;14.77;10.90;;;9.90;99.90;;;;;;6247084;23;20019;-87
2021/10/29 05:03:44;;;;;;;15.27;11.00;;;10.00;99.90;;;;;;6247324;23;20004;-87
2021/10/29 05:06:10;;;;;;;14.30;10.45;;;10.00;99.90;;;;;;6193191;23;20424;-87
2021/10/29 05:08:37;;;;;;;14.00;10.77;;;9.90;99.90;;;;;;6220572;23;19996;-88
2021/10/29 05:11:06;;;;;;;12.68;9.45;;;9.90;99.90;;;;;;6195463;23;20004;-87
2021/10/29 05:13:32;;;;;;;13.57;10.20;;;9.90;99.90;;;;;;6220410;23;20031;-88
2021/10/29 05:15:58;;;;;;;15.18;10.60;;;9.90;99.90;;;;;;6220135;23;20290;-87
2021/10/29 05:18:24;;;;;;;15.85;12.82;;;9.90;99.90;;;;;;6220354;23;20083;-86
2021/10/29 05:20:50;;;;;;;16.00;11.45;;;9.90;99.90;;;;;;6220356;23;20066;-87
2021/10/29 05:23:15;;;;;;;15.90;10.50;;;9.90;99.90;;;;;;6219192;23;20011;-87
2021/10/29 05:25:41;;;;;;;16.27;10.45;;;9.90;99.90;;;;;;6246721;23;19992;-88
2021/10/29 05:28:07;;;;;;;15.82;10.95;;;9.80;99.90;;;;;;6219987;23;20007;-87
2021/10/29 05:30:33;;;;;;;13.55;10.38;;;9.90;99.90;;;;;;6247123;23;20071;-87
2021/10/29 05:32:59;;;;;;;15.85;10.95;;;9.80;99.90;;;;;;6247144;23;20073;-87
2021/10/29 05:35:25;;;;;;;13.90;10.02;;;9.80;99.90;;;;;;6246577;23;20312;-87
2021/10/29 05:37:53;;;;;;;13.77;9.80;;;9.80;99.90;;;;;;6220116;23;20028;-87
2021/10/29 05:40:20;;;;;;;15.20;10.98;;;9.80;99.90;;;;;;6246793;23;20396;-87
2021/10/29 05:42:46;;;;;;;12.57;9.25;;;9.80;99.90;;;;;;6246557;23;20007;-87
2021/10/29 05:45:13;;;;;;;17.10;11.77;;;9.70;99.90;;;;;;6219944;23;20011;-88
2021/10/29 05:47:42;;;;;;;15.63;12.23;;;9.80;99.90;;;;;;6220138;23;19996;-86
2021/10/29 05:50:10;;;;;;;16.75;11.55;;;9.80;99.90;;;;;;6220082;23;20004;-87
2021/10/29 05:52:42;;;;;;;16.17;12.23;;;9.80;99.90;;;;;;6219556;23;20016;-86
2021/10/29 05:55:19;;;;;;;14.70;10.30;;;9.80;99.90;;;;;;6220665;23;20027;-88
2021/10/29 05:58:01;;;;;;;14.70;10.07;;;9.80;99.90;;;;;;6246136;23;19996;-88
2021/10/29 06:00:30;;;;;;;14.93;10.75;;;9.80;99.90;;;;;;6222376;23;20028;-87
2021/10/29 06:03:04;;;;;;;14.38;10.00;;;9.70;99.90;;;;;;6222118;23;20412;-87
2021/10/29 06:05:31;;;;;;;16.70;10.40;;;9.70;99.90;;;;;;6221922;23;20420;-87
2021/10/29 06:07:57;;;;;;;13.82;10.52;;;9.70;99.90;;;;;;6222488;23;20000;-87
2021/10/29 06:10:23;;;;;;;14.55;10.43;;;9.70;99.90;;;;;;6222219;23;20000;-87
2021/10/29 06:12:49;;;;;;;13.13;10.02;;;9.70;99.90;;;;;;6221961;23;20318;-87
2021/10/29 06:15:17;;;;;;;16.05;11.35;;;9.70;99.90;;;;;;6248062;23;19992;-88
2021/10/29 06:17:46;;;;;;;13.95;10.65;;;9.60;99.90;;;;;;6221991;23;19996;-87
2021/10/29 06:20:13;;;;;;;16.80;11.38;;;9.70;99.90;;;;;;6196656;23;20004;-87
2021/10/29 06:22:44;;;;;;;15.80;10.85;;;9.60;99.90;;;;;;6221844;23;20031;-87
2021/10/29 06:25:14;;;;;;;12.20;9.35;;;9.70;99.90;;;;;;6222066;23;20067;-87
2021/10/29 06:30:25;;;;;;;13.95;9.88;;;9.70;99.90;;;;;;6248537;23;20034;-88
2021/10/29 06:32:51;;;;;;;13.25;9.68;;;9.70;99.90;;;;;;6221780;23;20320;-87
2021/10/29 06:35:16;;;;;;;13.63;9.90;;;9.60;99.90;;;;;;6221958;23;19996;-87
2021/10/29 06:37:43;;;;;;;12.57;9.40;;;9.70;99.90;;;;;;6248762;23;20011;-87
2021/10/29 06:40:14;;;;;;;14.18;9.50;;;9.70;99.90;;;;;;6221713;23;20079;-87
2021/10/29 06:42:41;;;;;;;13.30;8.93;;;9.70;99.90;;;;;;6248559;23;20000;-86
2021/10/29 07:01:51;;;;;;;16.95;10.75;;;9.70;99.90;;;;;;6247776;23;20007;-86
2021/10/29 07:42:18;;;;;;;18.90;12.80;;;10.40;99.90;;;;;;6247972;23;20483;-87
2021/10/29 07:44:45;;;;;;;14.95;11.43;;;10.50;99.90;;;;;;6221193;23;20380;-87
2021/10/29 07:47:12;;;;;;;14.65;11.80;;;10.50;99.90;;;;;;6248127;23;20110;-87
2021/10/29 07:49:37;;;;;;;16.63;12.63;;;10.60;99.90;;;;;;6195858;23;20389;-87
2021/10/29 07:52:06;;;;;;;16.48;12.68;;;10.60;99.90;;;;;;6221142;23;20371;-87
2021/10/29 07:54:32;;;;;;;15.80;12.07;;;10.70;99.90;;;;;;6197569;23;20078;-88
2021/10/29 07:56:59;;;;;;;16.25;10.98;;;10.80;99.90;;;;;;6220625;23;20012;-87
2021/10/29 07:59:25;;;;;;;15.82;11.38;;;10.80;99.90;;;;;;6220909;23;20000;-86
2021/10/29 08:01:51;;;;;;;13.55;10.32;;;10.90;99.90;;;;;;6220657;23;20004;-88
2021/10/29 08:04:22;;;;;;;17.17;11.85;;;11.00;99.90;;;;;;6196508;23;20050;-87
2021/10/29 08:06:56;;;;;;;17.35;11.35;;;11.10;99.90;;;;;;6220976;23;19996;-87
2021/10/29 08:09:26;;;;;;;15.73;11.00;;;11.20;99.90;;;;;;6220482;23;20028;-87
2021/10/29 08:11:57;;;;;;;15.68;11.35;;;11.30;99.90;;;;;;6220975;23;19999;-88
2021/10/29 08:14:23;;;;;;;16.63;11.48;;;11.30;99.90;;;;;;6220930;23;20062;-87
2021/10/29 08:16:53;;;;;;;17.45;10.55;;;11.50;99.90;;;;;;6220663;23;20396;-87
2021/10/29 08:19:26;;;;;;;13.70;10.45;;;11.50;99.90;;;;;;6219623;23;20011;-88
2021/10/29 08:21:51;;;;;;;13.43;10.30;;;11.60;99.90;;;;;;6247702;23;20003;-87
2021/10/29 08:24:18;;;;;;;15.23;10.60;;;11.70;99.90;;;;;;6221027;23;20020;-88
2021/10/29 08:26:47;;;;;;;15.63;10.50;;;11.80;99.90;;;;;;6221012;23;19996;-88
2021/10/29 08:29:13;;;;;;;15.98;11.70;;;11.90;99.90;;;;;;6220891;23;20329;-88
2021/10/29 08:31:39;;;;;;;13.35;10.27;;;11.90;99.90;;;;;;6218573;23;20001;-87
2021/10/29 08:34:04;;;;;;;16.95;11.20;;;12.00;99.90;;;;;;6220923;23;20405;-88
2021/10/29 08:36:32;;;;;;;15.45;10.68;;;12.10;99.90;;;;;;6220809;23;19992;-88
2021/10/29 08:38:59;;;;;;;15.52;10.57;;;12.10;99.90;;;;;;6221093;23;20462;-88
2021/10/29 08:41:30;;;;;;;15.93;11.18;;;12.20;99.90;;;;;;6220350;23;20019;-88
2021/10/29 08:43:56;;;;;;;15.13;10.95;;;12.30;99.90;;;;;;6220907;23;20036;-87
2021/10/29 08:46:25;;;;;;;15.27;9.75;;;12.40;99.90;;;;;;6220789;23;20080;-88
2021/10/29 08:48:52;;;;;;;15.88;10.60;;;12.40;99.90;;;;;;6220786;23;20000;-87
2021/10/29 08:51:20;;;;;;;13.45;9.70;;;12.50;99.90;;;;;;6220644;23;19995;-87
2021/10/29 08:53:46;;;;;;;14.45;10.98;;;12.70;99.90;;;;;;6220598;23;20043;-88
2021/10/29 08:56:13;;;;;;;15.07;10.77;;;13.00;99.90;;;;;;6247042;23;20020;-88
2021/10/29 08:59:31;;;;;;;15.25;10.27;;;14.10;99.90;;;;;;6219893;23;20047;-87
2021/10/29 09:10:32;;;;;;;11.98;8.68;;;18.40;99.90;;;;;;6220909;23;20015;-88
2021/10/29 09:32:24;;;;;;;11.80;7.75;;;20.60;99.90;;;;;;6153743;23;20093;-88
2021/10/29 09:35:05;;;;;;;11.73;7.55;;;20.80;99.90;;;;;;6154202;23;19998;-89
2021/10/29 09:37:36;;;;;;;13.93;8.40;;;20.90;99.90;;;;;;6146660;23;20002;-87
2021/10/29 09:40:12;;;;;;;11.75;8.15;;;21.00;99.90;;;;;;6129157;23;19998;-88
2021/10/29 09:42:43;;;;;;;10.32;6.68;;;21.10;99.90;;;;;;6129154;23;20009;-88
2021/10/29 09:45:28;;;;;;;13.63;8.93;;;21.40;99.90;;;;;;6211389;23;20078;-88
2021/10/29 09:48:18;;;;;;;9.02;6.30;;;21.80;99.40;;;;;;6219872;23;20427;-87
2021/10/29 09:50:48;;;;;;;8.18;6.78;;;22.10;99.80;;;;;;6219209;23;20000;-87
2021/10/29 09:58:58;;;;;;;9.00;6.63;;;22.50;98.20;;;;;;6244852;23;20004;-86
2021/10/29 10:01:32;;;;;;;9.52;7.32;;;22.60;98.00;;;;;;6219528;23;20019;-87
2021/10/29 10:04:03;;;;;;;10.27;6.22;;;22.70;97.30;;;;;;6219865;23;20285;-88
2021/10/29 10:06:32;;;;;;;9.98;6.68;;;22.70;97.30;;;;;;6246681;23;20002;-87
2021/10/29 10:08:59;;;;;;;8.40;5.28;;;22.80;97.20;;;;;;6246537;23;20011;-87
2021/10/29 10:11:28;;;;;;;8.30;6.00;;;23.00;97.60;;;;;;6246420;23;19992;-87
2021/10/29 10:14:04;;;;;;;7.65;6.05;;;23.30;96.80;;;;;;6194931;23;20095;-88
2021/10/29 10:16:33;;;;;;;9.05;6.10;;;23.30;96.30;;;;;;6220607;23;20000;-88
2021/10/29 10:19:01;;;;;;;9.63;6.70;;;23.40;96.20;;;;;;6219438;23;20000;-88
2021/10/29 10:21:37;;;;;;;7.00;5.50;;;23.50;95.00;;;;;;6246152;23;19996;-87
2021/10/29 10:24:17;;;;;;;11.45;6.22;;;23.30;94.50;;;;;;6246191;23;20054;-87
2021/10/29 10:29:30;;;;;;;8.95;6.10;;;23.00;94.70;;;;;;6251372;23;20015;-88
2021/10/29 10:46:05;;;;;;;6.57;4.30;;;23.20;93.70;;;;;;6248417;23;20011;-87
2021/10/29 10:49:30;;;;;;;6.65;4.90;;;23.30;94.20;;;;;;6220635;23;20003;-87
2021/10/29 10:51:55;;;;;;;6.68;4.80;;;23.40;93.80;;;;;;6221441;22;20000;-87
2021/10/29 10:54:42;;;;;;;7.63;5.80;;;23.50;93.90;;;;;;6248173;23;19992;-88
2021/10/29 10:58:03;;;;;;;9.30;5.63;;;23.30;92.70;;;;;;6199439;23;20028;-87
2021/10/29 11:00:56;;;;;;;6.97;5.03;;;22.90;92.60;;;;;;6221040;23;20006;-88
2021/10/29 11:03:47;;;;;;;7.23;5.30;;;22.60;93.60;;;;;;6221188;23;20004;-87
2021/10/29 11:07:01;;;;;;;7.75;4.70;;;22.70;94.00;;;;;;6219995;23;20254;-89
2021/10/29 11:09:56;;;;;;;7.18;4.65;;;22.90;93.40;;;;;;6208676;23;20012;-87
2021/10/29 11:12:42;;;;;;;8.18;4.72;;;22.70;94.40;;;;;;6221421;23;20011;-87
2021/10/29 11:15:23;;;;;;;7.43;4.93;;;22.60;93.00;;;;;;6211226;23;20007;-87
2021/10/29 11:18:17;;;;;;;9.85;5.35;;;22.10;94.30;;;;;;6246921;23;19997;-87
2021/10/29 11:20:49;;;;;;;8.68;5.50;;;21.50;95.50;;;;;;6221185;23;20006;-88
2021/10/29 11:23:33;;;;;;;8.75;6.25;;;21.30;96.60;;;;;;6220416;23;20351;-87
2021/10/29 11:26:04;;;;;;;8.55;6.32;;;21.10;95.30;;;;;;6248028;23;20016;-87
2021/10/29 11:28:46;;;;;;;8.63;5.78;;;20.90;96.20;;;;;;6221094;23;19996;-88
2021/10/29 11:31:14;;;;;;;7.63;5.53;;;21.10;96.80;;;;;;6221056;23;19992;-87
2021/10/29 11:33:50;;;;;;;10.75;6.15;;;21.60;96.30;;;;;;6219941;23;19996;-87
2021/10/29 11:36:29;;;;;;;7.32;5.82;;;21.60;95.60;;;;;;6220546;23;19996;-87
2021/10/29 11:39:24;;;;;;;8.30;5.53;;;21.30;95.80;;;;;;6247391;23;20072;-88
2021/10/29 11:41:52;;;;;;;8.00;5.28;;;21.10;96.80;;;;;;6247710;23;20007;-87
2021/10/29 11:44:25;;;;;;;11.20;5.95;;;21.20;97.10;;;;;;6220856;23;20000;-87
2021/10/29 11:46:55;;;;;;;8.50;4.90;;;21.20;96.30;;;;;;6221667;23;20051;-87
2021/10/29 11:49:29;;;;;;;8.63;5.03;;;21.20;97.20;;;;;;6221826;23;19999;-87
2021/10/29 11:52:01;;;;;;;8.43;5.88;;;21.20;97.30;;;;;;6224433;23;20072;-86
2021/10/29 11:54:33;;;;;;;8.35;6.53;;;21.10;96.80;;;;;;6221227;23;20534;-88
2021/10/29 12:00:21;;;;;;;8.50;6.40;;;20.70;97.60;;;;;;6259252;23;20671;-88
2021/10/29 12:08:35;;;;;;;10.75;7.15;;;21.30;97.30;;;;;;6250618;23;20082;-87
2021/10/29 12:11:08;;;;;;;9.65;6.93;;;21.50;95.70;;;;;;6247790;23;20005;-87
2021/10/29 12:13:40;;;;;;;7.53;5.65;;;21.70;96.30;;;;;;6221187;23;20000;-87
2021/10/29 12:16:22;;;;;;;8.98;6.22;;;21.80;96.10;;;;;;6219659;23;20416;-87
2021/10/29 12:19:05;;;;;;;10.02;6.05;;;21.60;95.50;;;;;;6247643;23;19992;-87
2021/10/29 12:21:39;;;;;;;7.78;5.47;;;21.50;96.30;;;;;;6221390;23;20083;-87
2021/10/29 12:24:08;;;;;;;9.18;6.22;;;21.80;96.60;;;;;;6220859;23;20012;-87
2021/10/29 12:26:39;;;;;;;8.60;5.88;;;22.50;96.20;;;;;;6220957;23;20408;-87
2021/10/29 12:29:19;;;;;;;8.55;4.82;;;23.10;95.90;;;;;;6196735;23;19996;-87
2021/10/29 13:03:05;;;;;;;11.43;8.48;;;22.70;95.10;;;;;;6225124;23;20028;-87
2021/10/29 13:06:15;;;;;;;11.57;8.43;;;22.50;95.10;;;;;;6221771;23;20000;-87
2021/10/29 13:08:44;;;;;;;11.27;8.07;;;22.60;95.20;;;;;;6220701;23;20000;-87
2021/10/29 13:11:16;;;;;;;12.57;7.05;;;22.70;95.60;;;;;;6249093;23;20246;-87
2021/10/29 13:13:53;;;;;;;8.30;5.97;;;22.70;95.30;;;;;;6220541;23;20004;-86
2021/10/29 13:16:20;;;;;;;9.48;6.78;;;22.90;96.10;;;;;;6222654;23;20006;-86
2021/10/29 13:35:41;;;;;;;7.95;5.53;;;21.30;97.90;;;;;;6247455;23;20007;-89
2021/10/29 13:38:34;;;;;;;9.90;5.32;;;21.30;98.20;;;;;;6246073;23;20347;-89
2021/10/29 13:58:13;;;;;;;9.63;5.80;;;18.70;99.90;;;;;;6246044;23;20380;-88
2021/10/29 14:03:59;;;;;;;10.55;6.18;;;18.30;99.90;;;;;;6223789;23;20514;-88
2021/10/29 14:29:05;;;;;;;7.43;5.13;;;17.80;99.90;;;;;;6248728;23;20062;-86
2021/10/29 14:34:39;;;;;;;8.82;5.47;;;17.70;99.90;;;;;;6126236;23;20088;-89
2021/10/29 14:42:32;;;;;;;8.38;5.88;;;17.60;99.90;;;;;;6242254;23;20019;-85
2021/10/29 14:45:06;;;;;;;11.10;5.85;;;17.50;99.90;;;;;;6241887;23;19996;-87
2021/10/29 14:53:13;;;;;;;9.32;5.60;;;17.40;99.90;;;;;;6245737;22;20107;-87
2021/10/29 15:01:45;;;;;;;8.50;5.95;;;17.40;99.90;;;;;;6242381;23;20015;-86
2021/10/29 15:17:55;;;;;;;5.95;4.50;;;16.80;99.90;;;;;;6073085;23;20011;-88
2021/10/29 15:43:15;;;;;;;8.15;5.10;;;16.70;99.90;;;;;;6221402;23;20031;-88
2021/10/29 15:45:46;;;;;;;8.30;4.20;;;16.70;99.90;;;;;;6212313;23;20003;-89
2021/10/29 15:50:41;;;;;;;7.55;4.22;;;16.60;99.90;;;;;;6242663;23;20004;-88
2021/10/29 15:53:10;;;;;;;6.47;3.58;;;16.70;99.90;;;;;;6214470;23;20509;-88
2021/10/29 15:56:04;;;;;;;5.70;3.17;;;16.70;99.90;;;;;;6215920;23;19996;-90
2021/10/29 16:01:09;;;;;;;4.85;2.67;;;16.90;99.90;;;;;;6215658;23;20001;-89
2021/10/29 16:17:49;;;;;;;4.38;2.22;;;17.30;99.90;;;;;;6219612;23;20015;-88
2021/10/29 16:20:18;;;;;;;5.22;2.75;;;17.30;99.90;;;;;;6216066;23;19996;-89
2021/10/29 16:22:53;;;;;;;5.97;2.50;;;17.30;99.90;;;;;;6215642;23;20332;-88
2021/10/29 16:25:21;;;;;;;6.15;2.45;;;17.40;99.90;;;;;;6215475;23;20004;-88
2021/10/29 16:30:17;;;;;;;7.10;2.35;;;17.40;99.90;;;;;;6242915;23;20008;-89
2021/10/29 16:35:24;;;;;;;6.90;3.33;;;17.40;99.90;;;;;;6252946;23;20012;-89
2021/10/29 16:37:53;;;;;;;6.43;3.80;;;16.90;99.90;;;;;;6212709;23;20000;-90
2021/10/29 16:40:23;;;;;;;4.07;2.90;;;16.10;99.90;;;;;;6218695;23;20007;-89
2021/10/29 16:42:52;;;;;;;5.03;3.25;;;15.50;99.90;;;;;;6192694;23;20438;-90
2021/10/29 16:45:21;;;;;;;5.30;2.90;;;15.20;99.90;;;;;;6219060;23;20003;-91
2021/10/29 16:47:50;;;;;;;4.38;2.58;;;15.00;99.90;;;;;;6222037;23;20397;-91
2021/10/29 16:50:24;;;;;;;4.80;2.80;;;14.70;99.90;;;;;;6221566;23;20397;-92
2021/10/29 16:53:21;;;;;;;;;;;;;;;;;;;;;
2021/10/29 16:56:17;;;;;;;;;;;;;;;;;;;;;
2021/10/29 16:58:51;;;;;;;6.25;3.95;;;14.20;99.90;;;;;;6150947;23;20075;-93
2021/10/29 17:04:59;;;;;;;8.13;4.20;;;14.10;99.90;;;;;;6064095;23;20010;-93
2021/10/29 17:07:41;;;;;;;8.13;4.78;;;14.10;99.90;;;;;;6139760;23;20004;-94
2021/10/29 17:10:20;;;;;;;7.80;4.57;;;14.00;99.90;;;;;;6215829;23;20005;-93
2021/10/29 17:12:49;;;;;;;7.45;4.85;;;14.00;99.90;;;;;;6219466;23;19996;-94
2021/10/29 17:16:18;;;;;;;8.68;4.82;;;14.00;99.90;;;;;;6218227;23;20101;-95
2021/10/29 17:18:52;;;;;;;6.93;4.63;;;14.00;99.90;;;;;;6228889;23;20011;-95
2021/10/29 17:21:27;;;;;;;7.03;5.07;;;13.90;99.90;;;;;;6194574;23;20087;-94
2021/10/29 17:24:45;;;;;;;7.47;5.70;;;13.90;99.90;;;;;;6192959;23;20324;-93
2021/10/29 17:27:53;;;;;;;6.95;5.30;;;13.90;99.90;;;;;;6238190;23;20000;-93
2021/10/29 17:31:16;;;;;;;7.85;5.15;;;13.90;99.90;;;;;;6242421;23;20000;-92
2021/10/29 17:34:10;;;;;;;7.93;4.97;;;13.80;99.90;;;;;;6197771;23;20451;-95
2021/10/29 17:37:00;;;;;;;6.10;4.68;;;13.80;99.90;;;;;;6240648;23;20004;-94
2021/10/29 17:39:34;;;;;;;8.75;4.82;;;13.80;99.90;;;;;;6191955;23;20070;-94
2021/10/29 17:42:04;;;;;;;6.90;4.22;;;13.70;99.90;;;;;;6193004;23;20084;-95
2021/10/29 17:44:37;;;;;;;8.18;4.63;;;13.70;99.90;;;;;;6216547;23;20004;-93
2021/10/29 17:52:40;;;;;;;5.93;3.40;;;13.50;99.90;;;;;;6219499;23;20420;-91
2021/10/29 17:55:37;;;;;;;5.18;3.35;;;13.50;99.90;;;;;;6218023;23;20000;-92
2021/10/29 17:58:09;;;;;;;4.55;3.20;;;13.50;99.90;;;;;;6211322;23;20012;-93
2021/10/29 18:00:46;;;;;;;4.35;2.90;;;13.50;99.90;;;;;;6167330;23;20005;-91
2021/10/29 18:03:30;;;;;;;5.88;3.47;;;13.50;99.90;;;;;;6215151;23;20004;-90
2021/10/29 18:06:02;;;;;;;4.50;3.13;;;13.50;99.90;;;;;;6191952;23;20015;-90
2021/10/29 18:08:54;;;;;;;;;;;;;;;;;;;;;